Time;durP1;ratioP1;P1;durP2;ratioP2;P2;SDS_P1;SDS_P2;PMS_P1;PMS_P2;Temp;Humidity;BMP_temperature;BMP_pressure;BME280_temperature;BME280_humidity;BME280_pressure;Samples;Min_cycle;Max_cycle;Signal;HPM_P1;HPM_P2
2021/10/22 00:02:12;;;;;;;9.73;2.37;;;;;;;6.69;70.84;101567.38;4957928;29;20035;-68
2021/10/22 00:04:37;;;;;;;4.93;2.53;;;;;;;6.64;70.71;101579.22;4958539;29;20386;-67
2021/10/22 00:07:03;;;;;;;5.57;1.67;;;;;;;6.59;70.90;101579.88;4958396;28;20429;-67
2021/10/22 00:09:29;;;;;;;7.57;1.93;;;;;;;6.57;71.40;101578.00;4958471;28;20042;-68
2021/10/22 00:11:54;;;;;;;12.40;2.20;;;;;;;6.54;72.06;101578.72;4957845;29;20031;-67
2021/10/22 00:14:20;;;;;;;5.20;1.47;;;;;;;6.50;71.44;101576.78;4958241;28;20031;-68
2021/10/22 00:16:45;;;;;;;6.97;1.57;;;;;;;6.50;72.45;101575.84;4958872;29;20397;-68
2021/10/22 00:19:11;;;;;;;8.23;1.63;;;;;;;6.52;71.09;101576.84;4957718;29;20802;-67
2021/10/22 00:21:36;;;;;;;5.33;1.43;;;;;;;6.49;71.38;101572.38;4958880;28;20015;-67
2021/10/22 00:24:02;;;;;;;4.47;1.30;;;;;;;6.54;70.85;101578.72;4957525;28;20035;-68
2021/10/22 00:26:28;;;;;;;8.37;2.03;;;;;;;6.56;70.24;101578.81;4958082;28;20058;-68
2021/10/22 00:28:53;;;;;;;8.73;2.00;;;;;;;6.56;69.74;101577.13;4957743;28;20031;-69
2021/10/22 00:31:20;;;;;;;5.37;1.30;;;;;;;6.56;69.39;101574.53;4958546;28;20023;-68
2021/10/22 00:33:45;;;;;;;5.33;1.60;;;;;;;6.58;70.05;101574.59;4958392;28;20030;-68
2021/10/22 00:36:11;;;;;;;7.03;2.13;;;;;;;6.56;71.13;101577.13;4958018;28;20035;-68
2021/10/22 00:38:37;;;;;;;5.30;1.50;;;;;;;6.52;70.37;101571.63;4958351;29;20031;-68
2021/10/22 00:41:02;;;;;;;12.27;1.73;;;;;;;6.50;68.75;101563.75;4957337;28;20077;-68
2021/10/22 00:43:30;;;;;;;4.73;1.47;;;;;;;6.53;69.34;101566.53;4956599;28;20075;-68
2021/10/22 00:45:55;;;;;;;10.27;2.20;;;;;;;6.52;70.52;101563.81;4958157;28;20046;-68
2021/10/22 00:48:21;;;;;;;6.03;2.00;;;;;;;6.52;70.01;101564.72;4958124;28;20305;-69
2021/10/22 00:50:55;;;;;;;7.87;1.30;;;;;;;6.53;69.13;101547.44;4958631;28;20369;-68
2021/10/22 00:53:20;;;;;;;9.83;2.03;;;;;;;6.53;70.10;101560.44;4958497;28;20289;-69
2021/10/22 00:55:46;;;;;;;7.67;1.30;;;;;;;6.55;68.80;101557.09;4958550;29;20023;-67
2021/10/22 00:58:11;;;;;;;3.33;1.40;;;;;;;6.59;69.16;101565.97;4957173;28;20039;-66
2021/10/22 01:00:37;;;;;;;8.53;1.70;;;;;;;6.62;68.07;101562.66;4957921;28;20031;-68
2021/10/22 01:03:03;;;;;;;9.27;2.10;;;;;;;6.63;68.39;101564.44;4957308;29;20030;-69
2021/10/22 01:05:29;;;;;;;9.13;1.47;;;;;;;6.74;67.54;101561.63;4957530;29;20038;-69
2021/10/22 01:07:54;;;;;;;7.87;1.70;;;;;;;6.81;67.56;101572.38;4960240;28;20027;-69
2021/10/22 01:10:20;;;;;;;7.63;1.50;;;;;;;6.84;68.08;101568.25;4943816;29;20425;-68
2021/10/22 01:12:45;;;;;;;9.33;2.10;;;;;;;6.83;68.69;101558.66;4960700;29;20030;-68
2021/10/22 01:15:11;;;;;;;7.83;2.30;;;;;;;6.83;67.83;101561.25;4961229;29;20019;-68
2021/10/22 01:17:39;;;;;;;5.80;1.93;;;;;;;6.87;68.65;101557.97;4961534;28;20027;-68
2021/10/22 01:20:07;;;;;;;8.83;1.97;;;;;;;6.87;69.40;101552.78;4960126;29;20030;-68
2021/10/22 01:22:32;;;;;;;8.17;1.60;;;;;;;6.94;68.06;101547.91;4960088;28;20042;-68
2021/10/22 01:24:58;;;;;;;10.40;2.30;;;;;;;6.97;67.87;101553.31;4960712;29;20027;-68
2021/10/22 01:27:24;;;;;;;9.60;1.87;;;;;;;6.98;68.97;101545.56;4960636;28;20067;-68
2021/10/22 01:29:50;;;;;;;6.77;1.80;;;;;;;7.00;68.35;101543.94;4959954;29;20023;-68
2021/10/22 01:32:15;;;;;;;9.40;2.07;;;;;;;7.05;66.82;101548.50;4960738;28;20031;-68
2021/10/22 01:34:41;;;;;;;8.43;2.10;;;;;;;7.12;67.67;101533.28;4960887;28;20035;-69
2021/10/22 01:37:06;;;;;;;6.23;1.80;;;;;;;7.16;67.11;101531.72;4960603;29;20454;-68
2021/10/22 01:39:32;;;;;;;15.13;2.33;;;;;;;7.20;67.46;101532.78;4960285;29;20054;-67
2021/10/22 01:41:57;;;;;;;6.97;1.93;;;;;;;7.23;67.22;101530.38;4960854;28;20329;-68
2021/10/22 01:44:24;;;;;;;8.67;2.40;;;;;;;7.26;67.41;101527.91;4960814;29;20031;-69
2021/10/22 01:46:49;;;;;;;10.47;2.03;;;;;;;7.28;67.25;101526.28;4960468;28;20059;-69
2021/10/22 01:49:15;;;;;;;10.80;1.90;;;;;;;7.31;68.06;101522.94;4960276;28;20073;-67
2021/10/22 01:51:40;;;;;;;17.97;2.00;;;;;;;7.33;68.12;101510.91;4943101;29;20047;-68
2021/10/22 01:54:06;;;;;;;7.93;1.70;;;;;;;7.38;67.35;101512.03;4941580;29;20019;-68
2021/10/22 01:56:32;;;;;;;14.03;2.00;;;;;;;7.45;66.98;101518.44;4959345;29;20023;-68
2021/10/22 01:58:57;;;;;;;13.03;2.43;;;;;;;7.51;66.76;101513.56;4960271;28;20093;-67
2021/10/22 02:01:26;;;;;;;10.33;2.10;;;;;;;7.55;67.41;101520.72;4960975;28;20106;-69
2021/10/22 02:03:51;;;;;;;8.47;1.60;;;;;;;7.60;66.79;101516.63;4960766;28;20086;-67
2021/10/22 02:06:17;;;;;;;7.90;1.87;;;;;;;7.66;65.68;101514.34;4960214;28;20046;-67
2021/10/22 02:08:42;;;;;;;6.73;1.67;;;;;;;7.68;66.07;101528.34;4960778;29;20110;-68
2021/10/22 02:11:08;;;;;;;7.57;2.40;;;;;;;7.71;66.01;101517.19;4955868;29;20039;-69
2021/10/22 02:13:33;;;;;;;8.20;1.63;;;;;;;7.74;65.92;101499.09;4941159;29;20035;-69
2021/10/22 02:15:59;;;;;;;11.10;2.43;;;;;;;7.84;65.46;101514.38;4941131;28;20334;-70
2021/10/22 02:18:24;;;;;;;8.47;2.03;;;;;;;7.88;66.41;101510.22;4940025;28;20346;-69
2021/10/22 02:20:50;;;;;;;8.50;1.60;;;;;;;7.92;66.10;101501.72;4950950;29;20427;-68
2021/10/22 02:23:16;;;;;;;10.00;2.17;;;;;;;7.97;65.24;101507.19;4960284;28;20472;-68
2021/10/22 02:25:42;;;;;;;13.83;2.23;;;;;;;8.01;66.11;101503.91;4960313;28;20023;-68
2021/10/22 02:28:07;;;;;;;5.80;1.87;;;;;;;8.01;67.18;101506.50;4960051;29;20285;-69
2021/10/22 02:30:32;;;;;;;8.77;1.63;;;;;;;8.01;65.86;101511.72;4955231;28;20047;-68
2021/10/22 02:32:58;;;;;;;10.37;2.10;;;;;;;8.02;67.27;101499.59;4940981;29;20036;-70
2021/10/22 02:35:23;;;;;;;5.97;1.63;;;;;;;8.05;66.88;101499.72;4956140;29;20027;-69
2021/10/22 02:37:48;;;;;;;4.77;1.43;;;;;;;8.07;66.68;101501.59;4941020;29;20024;-68
2021/10/22 02:40:16;;;;;;;7.80;2.13;;;;;;;8.04;66.70;101496.22;4944649;28;20092;-67
2021/10/22 02:42:41;;;;;;;4.90;1.57;;;;;;;8.06;66.21;101494.59;4958806;29;20089;-67
2021/10/22 02:45:07;;;;;;;8.47;2.00;;;;;;;8.06;67.73;101484.16;4959442;28;20118;-68
2021/10/22 02:47:33;;;;;;;10.50;2.33;;;;;;;8.08;68.26;101479.91;4960156;28;20046;-69
2021/10/22 02:49:58;;;;;;;7.53;2.10;;;;;;;8.07;67.79;101475.53;4958357;29;20059;-69
2021/10/22 02:52:24;;;;;;;10.20;1.87;;;;;;;8.13;68.09;101484.44;4959678;29;20023;-70
2021/10/22 02:54:49;;;;;;;5.87;1.77;;;;;;;8.17;68.83;101481.19;4958592;28;20378;-69
2021/10/22 02:57:14;;;;;;;5.67;1.73;;;;;;;8.18;68.46;101478.66;4959873;29;20058;-68
2021/10/22 02:59:40;;;;;;;9.07;2.13;;;;;;;8.21;68.70;101481.41;4959261;29;20031;-68
2021/10/22 03:02:05;;;;;;;5.10;1.70;;;;;;;8.25;68.88;101491.19;4955450;29;20048;-69
2021/10/22 03:04:30;;;;;;;10.40;1.70;;;;;;;8.28;68.66;101474.75;4940440;29;20083;-71
2021/10/22 03:06:56;;;;;;;11.43;1.90;;;;;;;8.37;67.50;101477.81;4957643;28;20437;-69
2021/10/22 03:09:21;;;;;;;9.90;1.77;;;;;;;8.39;68.03;101481.41;4958486;29;20039;-68
2021/10/22 03:11:46;;;;;;;11.57;1.90;;;;;;;8.39;67.39;101483.09;4959846;28;20089;-68
2021/10/22 03:14:12;;;;;;;7.00;1.70;;;;;;;8.38;68.06;101477.00;4959188;28;20031;-68
2021/10/22 03:16:37;;;;;;;7.37;1.60;;;;;;;8.36;67.95;101481.22;4959320;29;20437;-69
2021/10/22 03:19:02;;;;;;;7.17;2.73;;;;;;;8.41;68.13;101477.97;4959013;28;20047;-69
2021/10/22 03:21:28;;;;;;;8.30;2.73;;;;;;;8.45;68.31;101466.81;4959834;28;20027;-70
2021/10/22 03:23:56;;;;;;;7.57;1.93;;;;;;;8.46;68.38;101471.25;4958282;29;20042;-69
2021/10/22 03:26:22;;;;;;;5.10;1.50;;;;;;;8.44;68.94;101473.78;4959440;28;20053;-69
2021/10/22 03:28:48;;;;;;;6.47;1.50;;;;;;;8.49;68.11;101467.06;4942416;29;20058;-71
2021/10/22 03:31:13;;;;;;;7.53;1.87;;;;;;;8.54;67.85;101466.41;4958747;28;20370;-69
2021/10/22 03:33:38;;;;;;;7.47;1.87;;;;;;;8.58;67.77;101468.34;4958197;28;20034;-69
2021/10/22 03:36:04;;;;;;;6.00;1.60;;;;;;;8.64;67.35;101473.84;4958962;28;20031;-70
2021/10/22 03:38:30;;;;;;;11.83;3.17;;;;;;;8.68;66.63;101472.25;4958277;29;20109;-67
2021/10/22 03:40:55;;;;;;;7.33;2.00;;;;;;;8.70;67.23;101474.13;4959015;29;20031;-69
2021/10/22 03:43:21;;;;;;;9.13;1.80;;;;;;;8.68;67.98;101461.81;4958921;28;20074;-69
2021/10/22 03:45:47;;;;;;;9.43;2.10;;;;;;;8.67;68.34;101463.56;4954216;28;20465;-69
2021/10/22 03:48:15;;;;;;;9.17;2.27;;;;;;;8.64;69.19;101461.69;4950086;28;20031;-67
2021/10/22 03:50:41;;;;;;;8.17;2.23;;;;;;;8.65;69.00;101458.25;4959122;28;20035;-68
2021/10/22 03:53:07;;;;;;;7.20;1.90;;;;;;;8.68;68.56;101451.38;4957945;29;20301;-69
2021/10/22 03:55:32;;;;;;;12.17;2.27;;;;;;;8.69;67.53;101461.00;4958966;28;20027;-69
2021/10/22 03:57:58;;;;;;;5.70;1.60;;;;;;;8.75;67.06;101456.06;4958490;28;20398;-67
2021/10/22 04:00:23;;;;;;;12.40;1.90;;;;;;;8.79;67.01;101463.22;4958071;28;20410;-70
2021/10/22 04:02:48;;;;;;;5.70;1.70;;;;;;;8.80;66.48;101478.94;4959254;28;20034;-69
2021/10/22 04:05:14;;;;;;;9.40;2.50;;;;;;;8.82;67.08;101473.78;4957875;29;20038;-66
2021/10/22 04:07:39;;;;;;;8.73;1.93;;;;;;;8.88;66.20;101483.63;4958063;29;20054;-68
2021/10/22 04:10:06;;;;;;;7.90;2.70;;;;;;;8.90;66.78;101472.44;4957167;28;20074;-70
2021/10/22 04:12:32;;;;;;;8.27;1.80;;;;;;;8.95;67.20;101485.69;4959201;28;20104;-68
2021/10/22 04:14:58;;;;;;;8.47;2.00;;;;;;;8.95;66.44;101488.31;4958389;28;20359;-67
2021/10/22 04:17:24;;;;;;;10.63;2.30;;;;;;;9.00;64.87;101493.72;4958800;28;20031;-68
2021/10/22 04:19:49;;;;;;;7.83;1.73;;;;;;;9.01;63.97;101492.91;4958794;28;20286;-71
2021/10/22 04:22:15;;;;;;;13.40;2.57;;;;;;;8.99;63.78;101500.69;4958490;29;20023;-71
2021/10/22 04:24:40;;;;;;;11.57;2.30;;;;;;;9.01;63.64;101501.66;4957808;29;20121;-71
2021/10/22 04:27:06;;;;;;;9.00;1.80;;;;;;;9.00;63.24;101502.47;4958162;28;20481;-69
2021/10/22 04:29:31;;;;;;;7.27;2.07;;;;;;;9.02;62.65;101506.03;4958160;28;20031;-69
2021/10/22 04:31:57;;;;;;;6.27;1.80;;;;;;;9.01;63.90;101508.59;4958611;29;20405;-69
2021/10/22 04:34:27;;;;;;;4.70;1.40;;;;;;;8.99;63.75;101513.75;4958809;28;20405;-68
2021/10/22 04:36:53;;;;;;;5.97;2.40;;;;;;;8.97;63.21;101506.66;4957530;29;20027;-70
2021/10/22 04:42:04;;;;;;;6.77;1.87;;;;;;;8.98;61.18;101517.19;4959561;28;20082;-70
2021/10/22 04:44:30;;;;;;;3.53;1.20;;;;;;;9.04;61.43;101512.22;4961995;28;20043;-67
2021/10/22 04:46:56;;;;;;;7.97;1.87;;;;;;;9.11;60.43;101510.81;4961749;28;20039;-66
2021/10/22 04:49:22;;;;;;;8.83;1.97;;;;;;;9.10;61.99;101519.47;4961746;28;20031;-68
2021/10/22 04:51:48;;;;;;;5.53;1.87;;;;;;;9.06;63.51;101508.00;4962356;28;20062;-68
2021/10/22 04:54:13;;;;;;;8.60;1.90;;;;;;;9.01;63.78;101496.44;4961268;28;20027;-70
2021/10/22 04:56:38;;;;;;;8.67;1.73;;;;;;;9.04;63.09;101507.00;4962044;28;20027;-68
2021/10/22 04:59:04;;;;;;;8.23;1.53;;;;;;;9.09;63.38;101496.75;4961340;29;20027;-68
2021/10/22 05:01:29;;;;;;;6.60;1.60;;;;;;;9.09;64.93;101491.53;4961733;28;20098;-67
2021/10/22 05:03:55;;;;;;;10.57;2.20;;;;;;;9.06;64.46;101479.25;4961480;29;20038;-68
2021/10/22 05:06:20;;;;;;;5.43;1.40;;;;;;;9.09;64.59;101473.25;4961823;28;20034;-68
2021/10/22 05:08:46;;;;;;;5.60;2.40;;;;;;;9.08;65.27;101471.47;4961805;28;20058;-68
2021/10/22 05:11:11;;;;;;;7.13;1.47;;;;;;;9.07;64.86;101493.19;4960929;29;20110;-67
2021/10/22 05:13:36;;;;;;;13.00;1.73;;;;;;;9.06;66.37;101486.19;4961308;29;20031;-66
2021/10/22 05:16:01;;;;;;;9.47;2.83;;;;;;;9.02;67.39;101479.91;4960468;29;20031;-66
2021/10/22 05:18:28;;;;;;;8.13;1.70;;;;;;;8.91;68.91;101466.38;4959440;28;20031;-67
2021/10/22 05:20:53;;;;;;;4.00;1.57;;;;;;;8.82;69.61;101485.97;4960469;28;20031;-70
2021/10/22 05:23:19;;;;;;;10.63;1.97;;;;;;;8.69;71.13;101463.59;4961227;28;20037;-67
2021/10/22 05:25:44;;;;;;;10.70;3.07;;;;;;;8.57;71.40;101462.22;4960329;28;20035;-68
2021/10/22 05:28:10;;;;;;;8.83;1.70;;;;;;;8.45;71.49;101461.59;4960570;28;20027;-66
2021/10/22 05:30:35;;;;;;;5.40;1.90;;;;;;;8.43;69.96;101445.91;4960569;28;20031;-66
2021/10/22 05:33:01;;;;;;;9.63;2.00;;;;;;;8.41;71.03;101441.41;4960342;29;20074;-70
2021/10/22 05:35:27;;;;;;;7.67;1.80;;;;;;;8.36;67.92;101456.88;4944236;29;20321;-69
2021/10/22 05:37:52;;;;;;;5.43;1.63;;;;;;;8.37;68.67;101448.22;4961049;28;20073;-68
2021/10/22 05:40:17;;;;;;;4.63;1.70;;;;;;;8.37;68.40;101443.91;4948757;28;20058;-67
2021/10/22 05:42:43;;;;;;;9.40;1.70;;;;;;;8.33;69.13;101449.78;4941968;29;20043;-68
2021/10/22 05:45:09;;;;;;;8.80;2.17;;;;;;;8.32;67.82;101454.91;4960070;29;20035;-67
2021/10/22 05:47:37;;;;;;;7.50;2.00;;;;;;;8.37;66.92;101440.38;4960814;28;20042;-66
2021/10/22 05:50:04;;;;;;;6.33;1.93;;;;;;;8.47;65.31;101455.63;4959129;29;20146;-67
2021/10/22 05:52:30;;;;;;;7.50;1.80;;;;;;;8.59;64.11;101433.59;4960331;28;20027;-66
2021/10/22 05:54:59;;;;;;;5.87;1.47;;;;;;;8.64;64.59;101443.41;4961139;28;20093;-67
2021/10/22 05:57:24;;;;;;;11.60;2.43;;;;;;;8.60;64.19;101437.97;4959020;29;20133;-69
2021/10/22 05:59:50;;;;;;;6.80;1.77;;;;;;;8.65;64.23;101431.22;4960293;28;20019;-70
2021/10/22 06:02:15;;;;;;;9.47;2.00;;;;;;;8.66;64.43;101449.59;4959117;29;20102;-69
2021/10/22 06:04:41;;;;;;;4.90;1.90;;;;;;;8.62;65.32;101438.94;4951019;28;20031;-67
2021/10/22 06:07:06;;;;;;;10.37;2.63;;;;;;;8.58;64.18;101450.97;4959545;28;20157;-68
2021/10/22 06:09:31;;;;;;;9.03;1.80;;;;;;;8.57;64.08;101437.81;4955798;28;20031;-67
2021/10/22 06:11:57;;;;;;;9.33;1.80;;;;;;;8.58;60.75;101447.47;4956785;29;20037;-69
2021/10/22 06:14:22;;;;;;;7.37;1.70;;;;;;;8.60;61.56;101451.91;4960313;28;20055;-71
2021/10/22 06:16:48;;;;;;;12.57;1.80;;;;;;;8.61;62.28;101452.81;4960717;29;20027;-69
2021/10/22 06:19:22;;;;;;;6.57;1.83;;;;;;;8.64;62.06;101448.63;4969312;28;20133;-69
2021/10/22 06:24:32;;;;;;;8.00;1.73;;;;;;;8.66;63.45;101448.72;4979527;28;20030;-69
2021/10/22 06:26:57;;;;;;;7.43;1.80;;;;;;;8.66;63.37;101451.31;4972613;28;20059;-71
2021/10/22 06:29:23;;;;;;;6.03;1.90;;;;;;;8.64;63.50;101458.16;4958694;29;20078;-72
2021/10/22 06:31:48;;;;;;;9.03;2.00;;;;;;;8.65;64.05;101458.25;4959221;28;20051;-72
2021/10/22 06:34:14;;;;;;;13.33;2.47;;;;;;;8.63;63.79;101451.16;4943632;28;20039;-71
2021/10/22 06:36:39;;;;;;;7.60;1.77;;;;;;;8.61;64.85;101453.69;4940638;29;20389;-71
2021/10/22 06:39:05;;;;;;;10.37;2.10;;;;;;;8.58;63.19;101450.97;4951199;28;20039;-74
2021/10/22 06:41:31;;;;;;;6.87;1.97;;;;;;;8.59;63.59;101457.09;4941330;29;20455;-68
2021/10/22 06:43:56;;;;;;;9.57;1.70;;;;;;;8.60;63.74;101456.25;4951318;29;20110;-71
2021/10/22 06:46:23;;;;;;;6.50;1.97;;;;;;;8.60;64.15;101456.25;4960323;28;20271;-71
2021/10/22 06:48:48;;;;;;;12.07;1.73;;;;;;;8.61;63.90;101456.31;4943917;28;20028;-69
2021/10/22 06:51:15;;;;;;;12.13;2.30;;;;;;;8.63;64.12;101470.34;4940732;28;20298;-69
2021/10/22 06:53:41;;;;;;;11.00;2.63;;;;;;;8.66;63.66;101456.56;4941088;28;20024;-70
2021/10/22 06:56:07;;;;;;;9.13;2.43;;;;;;;8.68;64.15;101464.44;4940824;29;20343;-68
2021/10/22 06:58:33;;;;;;;11.53;2.20;;;;;;;8.69;63.78;101458.38;4955381;29;20437;-73
2021/10/22 07:00:59;;;;;;;6.37;1.40;;;;;;;8.73;63.72;101465.53;4940578;29;20031;-71
2021/10/22 07:03:27;;;;;;;5.90;1.90;;;;;;;8.73;63.69;101468.16;4958828;28;20394;-69
2021/10/22 07:08:25;;;;;;;2.80;1.33;;;;;;;8.80;62.46;101467.63;4959705;28;20119;-70
2021/10/22 07:10:50;;;;;;;8.53;2.10;;;;;;;8.85;61.91;101478.28;4951028;28;20035;-71
2021/10/22 07:13:16;;;;;;;7.10;2.00;;;;;;;8.88;62.29;101478.41;4958918;28;20066;-71
2021/10/22 07:15:42;;;;;;;8.80;2.00;;;;;;;8.91;62.65;101478.56;4955402;29;20028;-70
2021/10/22 07:18:08;;;;;;;11.60;1.90;;;;;;;8.97;62.30;101476.19;4940145;28;20070;-69
2021/10/22 07:20:34;;;;;;;11.53;2.23;;;;;;;8.98;63.13;101485.84;4959561;28;20030;-69
2021/10/22 07:23:06;;;;;;;10.10;2.47;;;;;;;8.97;63.90;101486.66;4958728;28;20020;-69
2021/10/22 07:25:32;;;;;;;8.30;2.13;;;;;;;8.98;63.88;101495.38;4959490;28;20110;-69
2021/10/22 07:27:58;;;;;;;7.73;2.90;;;;;;;9.00;63.24;101483.28;4959149;28;20286;-69
2021/10/22 07:30:24;;;;;;;5.63;2.17;;;;;;;9.05;64.36;101487.88;4959023;28;20520;-70
2021/10/22 07:32:50;;;;;;;7.60;2.17;;;;;;;9.11;63.21;101486.38;4958585;29;20019;-69
2021/10/22 07:35:16;;;;;;;10.13;2.90;;;;;;;9.14;64.72;101487.41;4958781;28;20041;-69
2021/10/22 07:37:43;;;;;;;12.77;2.03;;;;;;;9.17;64.44;101499.72;4962460;28;20035;-72
2021/10/22 07:40:09;;;;;;;9.17;1.90;;;;;;;9.19;63.84;101498.06;4958644;28;20382;-76
2021/10/22 07:42:36;;;;;;;9.10;2.03;;;;;;;9.26;63.40;101499.22;4959328;28;20063;-70
2021/10/22 07:45:04;;;;;;;14.87;2.63;;;;;;;9.28;63.50;101505.44;4958335;28;20078;-70
2021/10/22 07:47:34;;;;;;;14.13;2.20;;;;;;;9.32;62.94;101523.03;4956525;28;20091;-69
2021/10/22 07:50:01;;;;;;;12.27;2.73;;;;;;;9.40;63.47;101513.81;4958626;28;20019;-71
2021/10/22 07:52:29;;;;;;;9.47;2.03;;;;;;;9.42;63.68;101509.56;4957917;28;20118;-70
2021/10/22 07:54:55;;;;;;;13.93;2.40;;;;;;;9.46;62.71;101511.47;4973222;28;20035;-74
2021/10/22 07:57:23;;;;;;;8.27;2.00;;;;;;;9.46;62.20;101518.41;4959078;28;20035;-71
2021/10/22 07:59:48;;;;;;;13.67;2.10;;;;;;;9.46;62.46;101519.31;4958434;28;20282;-70
2021/10/22 08:02:14;;;;;;;11.33;1.90;;;;;;;9.46;62.97;101510.56;4958944;28;20035;-70
2021/10/22 08:04:41;;;;;;;10.13;2.23;;;;;;;9.49;63.04;101513.31;4957964;28;20043;-69
2021/10/22 08:07:06;;;;;;;6.60;2.07;;;;;;;9.49;63.32;101518.56;4954840;29;20338;-69
2021/10/22 08:09:32;;;;;;;8.10;2.40;;;;;;;9.52;63.54;101530.88;4955989;28;20129;-72
2021/10/22 08:11:57;;;;;;;10.40;2.10;;;;;;;9.56;62.79;101523.22;4957034;28;20053;-69
2021/10/22 08:14:23;;;;;;;8.27;2.00;;;;;;;9.65;62.67;101517.47;4956539;28;20039;-71
2021/10/22 08:16:49;;;;;;;8.03;1.90;;;;;;;9.68;62.00;101542.88;4958140;28;20027;-69
2021/10/22 08:19:16;;;;;;;8.63;2.43;;;;;;;9.72;62.67;101519.53;4960863;28;20050;-72
2021/10/22 08:24:07;;;;;;;8.93;2.33;;;;;;;9.81;62.10;101512.91;4961166;28;20157;-71
2021/10/22 08:26:33;;;;;;;11.33;2.20;;;;;;;9.80;62.62;101527.72;4962622;28;20038;-71
2021/10/22 08:28:59;;;;;;;10.43;2.63;;;;;;;9.86;62.25;101529.69;4961720;28;20115;-70
2021/10/22 08:31:24;;;;;;;13.60;2.60;;;;;;;9.87;62.44;101545.47;4962172;29;20043;-69
2021/10/22 08:33:50;;;;;;;13.30;2.23;;;;;;;9.92;62.87;101545.66;4961467;28;20035;-67
2021/10/22 08:36:15;;;;;;;11.90;1.97;;;;;;;9.96;62.43;101549.31;4961165;29;20038;-70
2021/10/22 08:38:40;;;;;;;12.93;2.27;;;;;;;9.98;63.32;101551.16;4957827;29;20035;-70
2021/10/22 08:41:13;;;;;;;8.67;1.90;;;;;;;9.97;63.54;101562.44;4942615;29;20056;-72
2021/10/22 08:43:40;;;;;;;11.07;2.53;;;;;;;9.94;63.46;101578.00;4942781;28;20051;-71
2021/10/22 08:46:11;;;;;;;13.27;3.03;;;;;;;9.96;63.42;101555.41;4942858;29;20047;-72
2021/10/22 08:48:37;;;;;;;12.53;2.30;;;;;;;9.96;62.07;101539.72;4952057;29;20034;-72
2021/10/22 08:51:02;;;;;;;5.43;1.70;;;;;;;9.98;62.01;101547.63;4961059;29;20019;-68
2021/10/22 08:53:29;;;;;;;8.70;2.33;;;;;;;9.99;62.70;101554.66;4962305;28;20055;-70
2021/10/22 08:55:55;;;;;;;13.70;2.60;;;;;;;9.96;62.41;101562.38;4961823;28;20035;-71
2021/10/22 08:58:21;;;;;;;12.00;2.33;;;;;;;9.99;62.72;101549.41;4957052;29;20049;-69
2021/10/22 09:00:47;;;;;;;11.80;2.07;;;;;;;10.02;63.09;101553.06;4943082;29;20023;-72
2021/10/22 09:03:14;;;;;;;12.67;2.03;;;;;;;10.06;62.12;101566.25;4942611;29;20034;-70
2021/10/22 09:06:00;;;;;;;11.73;2.40;;;;;;;10.11;63.62;101563.03;4942600;29;20074;-70
2021/10/22 09:08:34;;;;;;;13.25;2.53;;;;;;;10.16;63.22;101564.09;4950427;28;20039;-73
2021/10/22 09:11:01;;;;;;;9.63;2.20;;;;;;;10.20;63.39;101580.81;4961012;29;20042;-70
2021/10/22 09:13:32;;;;;;;11.07;2.70;;;;;;;10.34;62.89;101555.22;4961336;28;20122;-73
2021/10/22 09:15:58;;;;;;;9.60;2.50;;;;;;;10.44;63.15;101570.50;4961058;28;20398;-72
2021/10/22 09:18:28;;;;;;;10.30;2.23;;;;;;;10.48;62.58;101561.06;4961400;28;20089;-76
2021/10/22 09:20:57;;;;;;;6.73;1.83;;;;;;;10.43;62.96;101573.97;4959226;28;20126;-74
2021/10/22 09:23:27;;;;;;;14.23;2.43;;;;;;;10.49;63.13;101575.03;4956765;28;20043;-72
2021/10/22 09:25:54;;;;;;;9.27;2.20;;;;;;;10.53;63.75;101561.25;4947365;28;20042;-72
2021/10/22 09:28:26;;;;;;;16.53;2.23;;;;;;;10.55;63.64;101583.13;4959509;28;20034;-72
2021/10/22 09:30:51;;;;;;;6.90;1.97;;;;;;;10.52;63.53;101596.13;4957156;28;20136;-70
2021/10/22 09:33:20;;;;;;;7.33;2.20;;;;;;;10.47;63.25;101590.69;4953966;29;20457;-75
2021/10/22 09:35:53;;;;;;;10.20;1.90;;;;;;;10.48;64.40;101594.19;4944554;29;20035;-70
2021/10/22 09:38:27;;;;;;;14.73;2.13;;;;;;;10.52;64.19;101598.75;4961232;28;20040;-70
2021/10/22 09:41:00;;;;;;;8.40;2.10;;;;;;;10.54;63.55;101597.94;4961004;28;20293;-73
2021/10/22 09:43:29;;;;;;;11.07;2.70;;;;;;;10.54;62.64;101605.81;4960776;28;20054;-69
2021/10/22 09:46:17;;;;;;;11.97;1.90;;;;;;;10.53;63.60;101597.91;4955846;28;20099;-71
2021/10/22 09:48:45;;;;;;;10.43;1.87;;;;;;;10.57;62.70;101613.81;4953620;29;20027;-68
2021/10/22 09:51:43;;;;;;;8.63;2.27;;;;;;;10.65;63.29;101610.59;4960811;28;20118;-68
2021/10/22 09:54:11;;;;;;;11.07;2.60;;;;;;;10.67;64.30;101598.47;4914703;28;20051;-70
2021/10/22 09:56:43;;;;;;;11.73;3.23;;;;;;;10.63;63.54;101622.75;4940839;29;20031;-72
2021/10/22 09:59:10;;;;;;;10.97;2.17;;;;;;;10.60;63.95;101622.59;4941161;29;20039;-70
2021/10/22 10:01:43;;;;;;;9.43;2.23;;;;;;;10.55;63.90;101627.66;4957031;28;20051;-72
2021/10/22 10:04:10;;;;;;;12.10;2.20;;;;;;;10.53;64.07;101619.72;4946608;28;20397;-69
2021/10/22 10:06:39;;;;;;;11.57;2.13;;;;;;;10.48;64.89;101629.16;4959582;28;20039;-71
2021/10/22 10:09:08;;;;;;;16.87;2.40;;;;;;;10.48;65.41;101613.44;4959365;28;20067;-71
2021/10/22 10:11:34;;;;;;;8.03;2.10;;;;;;;10.52;65.38;101609.22;4958468;28;20050;-70
2021/10/22 10:14:01;;;;;;;7.57;1.83;;;;;;;10.45;66.10;101623.75;4940215;29;20039;-68
2021/10/22 10:16:27;;;;;;;13.23;2.40;;;;;;;10.38;67.59;101630.44;4959062;28;20110;-68
2021/10/22 10:18:55;;;;;;;11.70;2.60;;;;;;;10.39;67.20;101647.06;4959137;28;20039;-70
2021/10/22 10:21:22;;;;;;;11.07;2.73;;;;;;;10.36;66.49;101639.06;4942699;29;20051;-73
2021/10/22 10:23:49;;;;;;;11.10;2.30;;;;;;;10.39;66.92;101644.44;4958580;29;20038;-69
2021/10/22 10:26:20;;;;;;;8.00;2.63;;;;;;;10.43;66.97;101614.97;4968607;28;20055;-69
2021/10/22 10:28:45;;;;;;;11.63;2.30;;;;;;;10.52;65.04;101638.91;4958955;28;20027;-75
2021/10/22 10:31:30;;;;;;;10.53;2.20;;;;;;;10.61;64.64;101637.47;4959029;28;20039;-71
2021/10/22 10:33:55;;;;;;;10.60;2.30;;;;;;;10.63;64.70;101641.09;4959147;28;20397;-76
2021/10/22 10:36:50;;;;;;;12.47;2.33;;;;;;;10.59;65.24;101645.31;4958719;29;20031;-71
2021/10/22 10:39:41;;;;;;;9.27;2.50;;;;;;;10.57;64.59;101658.31;4957799;28;20059;-69
2021/10/22 10:42:26;;;;;;;9.87;2.03;;;;;;;10.58;64.44;101654.88;4958017;28;20071;-68
2021/10/22 10:44:55;;;;;;;6.40;2.00;;;;;;;10.63;65.52;101667.28;4956171;29;20062;-68
2021/10/22 10:47:26;;;;;;;6.97;2.77;;;;;;;10.66;65.09;101649.94;4947649;29;20387;-76
2021/10/22 10:49:52;;;;;;;11.63;2.10;;;;;;;10.67;64.87;101658.69;4959150;28;20055;-71
2021/10/22 10:52:42;;;;;;;16.97;2.97;;;;;;;10.74;64.93;101660.75;4959792;29;20111;-74
2021/10/22 10:55:27;;;;;;;9.70;2.60;;;;;;;10.77;64.39;101655.63;4952273;28;20378;-66
2021/10/22 10:57:58;;;;;;;11.07;2.60;;;;;;;10.84;64.71;101659.41;4953109;28;20063;-70
2021/10/22 11:00:34;;;;;;;8.63;2.53;;;;;;;10.82;63.82;101672.44;4940461;29;20039;-78
2021/10/22 11:03:03;;;;;;;9.82;2.10;;;;;;;10.85;64.17;101671.66;4956904;28;20036;-72
2021/10/22 11:05:51;;;;;;;12.00;1.93;;;;;;;10.86;64.68;101684.78;4959389;29;20114;-68
2021/10/22 11:08:24;;;;;;;12.50;2.80;;;;;;;10.85;64.80;101687.38;4959704;28;20147;-68
2021/10/22 11:11:09;;;;;;;14.17;2.40;;;;;;;10.84;63.83;101682.97;4955718;29;20034;-67
2021/10/22 11:13:47;;;;;;;7.07;1.90;;;;;;;10.79;65.21;101680.16;4947717;29;20480;-69
2021/10/22 11:16:22;;;;;;;10.60;2.27;;;;;;;10.75;64.90;101690.44;4939813;29;20069;-67
2021/10/22 11:18:52;;;;;;;11.17;2.27;;;;;;;10.74;64.57;101700.03;4956293;28;20055;-70
2021/10/22 11:21:18;;;;;;;6.83;2.40;;;;;;;10.71;64.89;101710.41;4959102;28;20023;-76
2021/10/22 11:23:44;;;;;;;10.73;2.10;;;;;;;10.71;64.99;101707.78;4957751;29;20022;-68
2021/10/22 11:26:14;;;;;;;9.83;1.93;;;;;;;10.68;63.53;101710.25;4942115;29;20027;-70
2021/10/22 11:28:40;;;;;;;7.97;1.80;;;;;;;10.69;63.49;101723.41;4957957;28;20039;-69
2021/10/22 11:31:05;;;;;;;7.30;2.23;;;;;;;10.65;64.61;101718.00;4959393;28;20069;-66
2021/10/22 11:33:31;;;;;;;13.33;3.40;;;;;;;10.67;62.69;101734.66;4958063;29;20398;-67
2021/10/22 11:35:57;;;;;;;10.47;2.27;;;;;;;10.75;62.96;101722.78;4959145;28;20023;-69
2021/10/22 11:38:26;;;;;;;10.43;2.10;;;;;;;10.94;63.15;101715.66;4957733;29;20054;-68
2021/10/22 11:40:53;;;;;;;8.80;3.13;;;;;;;11.10;62.79;101730.31;4958373;28;20023;-69